Time;durP1;ratioP1;P1;durP2;ratioP2;P2;SDS_P1;SDS_P2;PMS_P1;PMS_P2;Temp;Humidity;BMP_temperature;BMP_pressure;BME280_temperature;BME280_humidity;BME280_pressure;Samples;Min_cycle;Max_cycle;Signal;HPM_P1;HPM_P2
2023/04/03 00:01:28;;;;;;;1.00;0.95;;;;;;;;;;4971065;28;20057;-70
2023/04/03 00:03:55;;;;;;;0.63;0.63;;;8.40;99.90;;;;;;4970145;28;20569;-71
2023/04/03 00:06:21;;;;;;;0.70;0.70;;;8.80;99.90;;;;;;4970910;28;20023;-70
2023/04/03 00:08:47;;;;;;;0.70;0.70;;;8.30;99.90;;;;;;4970216;28;20027;-70
2023/04/03 00:11:13;;;;;;;1.00;0.88;;;8.20;99.90;;;;;;4970324;28;20030;-71
2023/04/03 00:13:39;;;;;;;0.75;0.70;;;;;;;;;;4970067;28;20554;-70
2023/04/03 00:16:05;;;;;;;0.60;0.60;;;8.40;99.90;;;;;;4970142;28;20114;-70
2023/04/03 00:18:32;;;;;;;0.40;0.40;;;;;;;;;;4970180;28;20055;-71
2023/04/03 00:20:58;;;;;;;0.60;0.60;;;;;;;;;;4984228;28;20649;-71
2023/04/03 00:23:23;;;;;;;0.80;0.80;;;8.40;99.90;;;;;;4969854;28;20881;-70
2023/04/03 00:25:50;;;;;;;0.60;0.60;;;8.30;99.90;;;;;;4970052;28;20026;-71
2023/04/03 00:28:15;;;;;;;0.52;0.52;;;8.30;99.90;;;;;;4969874;28;20027;-71
2023/04/03 00:30:41;;;;;;;0.50;0.50;;;8.30;99.90;;;;;;4970311;28;20039;-70
2023/04/03 00:33:07;;;;;;;0.43;0.43;;;8.30;99.90;;;;;;4968788;28;20046;-70
2023/04/03 00:35:34;;;;;;;1.35;0.60;;;8.00;99.90;;;;;;4968729;28;20089;-71
2023/04/03 00:38:00;;;;;;;0.65;0.60;;;;;;;;;;4969716;28;20034;-71
2023/04/03 00:40:27;;;;;;;0.50;0.50;;;8.10;99.90;;;;;;4969990;28;20158;-71
2023/04/03 00:42:58;;;;;;;0.63;0.60;;;7.90;99.90;;;;;;4969882;28;20061;-70
2023/04/03 00:45:28;;;;;;;1.50;0.70;;;8.10;99.90;;;;;;4969924;28;20096;-70
2023/04/03 00:47:55;;;;;;;0.60;0.60;;;8.20;99.90;;;;;;4969537;28;20078;-70
2023/04/03 00:50:21;;;;;;;0.90;0.70;;;;;;;;;;4970024;28;20080;-71
2023/04/03 00:52:48;;;;;;;0.90;0.57;;;8.10;99.90;;;;;;4968491;28;20027;-71
2023/04/03 00:55:16;;;;;;;0.77;0.63;;;8.10;99.90;;;;;;4969819;28;20853;-71
2023/04/03 00:57:42;;;;;;;0.82;0.70;;;;;;;;;;4969622;28;20035;-71
2023/04/03 01:00:12;;;;;;;1.08;0.68;;;8.00;99.90;;;;;;4969681;28;20053;-71
2023/04/03 01:02:40;;;;;;;0.60;0.60;;;;;;;;;;4969430;28;20101;-71
2023/04/03 01:05:06;;;;;;;0.50;0.50;;;8.10;99.90;;;;;;4969820;28;20039;-71
2023/04/03 01:07:33;;;;;;;2.28;0.70;;;;;;;;;;4969639;28;20047;-71
2023/04/03 01:10:02;;;;;;;0.57;0.55;;;8.20;99.90;;;;;;4969139;28;20031;-71
2023/04/03 01:12:40;;;;;;;1.75;0.98;;;8.00;99.90;;;;;;4969402;28;20125;-71
2023/04/03 01:15:12;;;;;;;0.65;0.60;;;7.90;99.90;;;;;;4969563;28;20550;-71
2023/04/03 01:17:48;;;;;;;0.60;0.60;;;8.00;99.90;;;;;;4969804;28;20027;-70
2023/04/03 01:20:35;;;;;;;0.57;0.57;;;8.00;99.90;;;;;;4969550;28;20596;-70
2023/04/03 01:23:13;;;;;;;0.77;0.60;;;8.00;99.90;;;;;;4969463;28;20019;-71
2023/04/03 01:25:53;;;;;;;0.50;0.50;;;8.00;99.90;;;;;;4957982;28;20027;-70
2023/04/03 01:28:25;;;;;;;0.70;0.60;;;8.10;99.90;;;;;;4969437;28;20031;-70
2023/04/03 01:31:21;;;;;;;2.95;0.88;;;8.00;99.90;;;;;;4969110;28;20062;-70
2023/04/03 01:33:47;;;;;;;0.60;0.60;;;8.00;99.90;;;;;;4960640;28;20035;-71
2023/04/03 01:36:21;;;;;;;0.50;0.50;;;8.50;99.90;;;;;;4973060;28;20030;-70
2023/04/03 01:38:47;;;;;;;0.70;0.70;;;;;;;;;;4973307;28;20153;-70
2023/04/03 01:41:13;;;;;;;0.43;0.43;;;7.80;99.90;;;;;;4973182;28;20530;-70
2023/04/03 01:43:39;;;;;;;0.57;0.57;;;;;;;;;;4973282;28;20035;-70
2023/04/03 01:46:05;;;;;;;0.93;0.60;;;7.70;99.90;;;;;;4972950;28;20034;-70
2023/04/03 01:48:31;;;;;;;0.75;0.70;;;;;;;;;;4973087;28;20518;-71
2023/04/03 01:50:56;;;;;;;0.95;0.95;;;;;;;;;;4972374;28;20030;-71
2023/04/03 01:53:22;;;;;;;1.88;0.90;;;7.80;99.90;;;;;;4973431;28;20038;-70
2023/04/03 01:55:48;;;;;;;0.60;0.60;;;7.90;99.90;;;;;;4973161;28;20019;-71
2023/04/03 01:58:14;;;;;;;1.08;0.85;;;;;;;;;;4973246;28;20103;-71
2023/04/03 02:00:40;;;;;;;1.75;0.80;;;;;;;;;;4973415;28;20105;-70
2023/04/03 02:03:06;;;;;;;1.83;1.02;;;;;;;;;;4987960;28;20126;-70
2023/04/03 02:05:33;;;;;;;1.63;1.13;;;;;;;;;;4972299;28;20496;-70
2023/04/03 02:07:59;;;;;;;1.50;1.05;;;;;;;;;;4972228;28;20567;-70
2023/04/03 02:10:24;;;;;;;1.17;0.80;;;8.00;99.90;;;;;;4972590;28;20026;-71
2023/04/03 02:12:50;;;;;;;1.48;1.30;;;;;;;;;;4972552;28;20039;-70
2023/04/03 02:15:17;;;;;;;1.52;1.05;;;;;;;;;;4972558;28;20019;-71
2023/04/03 02:17:42;;;;;;;0.70;0.70;;;8.10;99.90;;;;;;4972573;28;20130;-70
2023/04/03 02:20:08;;;;;;;0.60;0.60;;;;;;;;;;4972048;28;20114;-70
2023/04/03 02:22:35;;;;;;;0.60;0.60;;;;;;;;;;4972499;28;20038;-71
2023/04/03 02:25:00;;;;;;;1.88;0.85;;;8.00;99.90;;;;;;4972484;28;20579;-71
2023/04/03 02:27:26;;;;;;;0.73;0.73;;;8.20;99.90;;;;;;4972181;28;20062;-70
2023/04/03 02:29:52;;;;;;;0.63;0.60;;;;;;;;;;4964613;28;20107;-70
2023/04/03 02:32:18;;;;;;;0.95;0.80;;;;;;;;;;4972036;28;20027;-71
2023/04/03 02:34:44;;;;;;;1.33;0.80;;;;;;;;;;4971548;28;20030;-70
2023/04/03 02:37:10;;;;;;;0.70;0.70;;;;;;;;;;4972366;28;20114;-71
2023/04/03 02:39:37;;;;;;;1.27;0.93;;;7.70;99.90;;;;;;4972059;28;20049;-70
2023/04/03 02:42:02;;;;;;;0.50;0.50;;;8.20;99.90;;;;;;4972314;28;20043;-70
2023/04/03 02:44:28;;;;;;;0.50;0.50;;;;;;;;;;4971086;28;20027;-71
2023/04/03 02:46:54;;;;;;;0.75;0.63;;;;;;;;;;4968569;28;20055;-71
2023/04/03 02:49:20;;;;;;;1.30;0.70;;;;;;;;;;4972477;28;20038;-70
2023/04/03 02:51:47;;;;;;;0.57;0.50;;;;;;;;;;4971832;28;20033;-70
2023/04/03 02:54:13;;;;;;;0.57;0.57;;;7.80;99.90;;;;;;4971631;28;20459;-70
2023/04/03 02:56:39;;;;;;;0.50;0.50;;;7.70;99.90;;;;;;4971693;28;20054;-71
2023/04/03 02:59:05;;;;;;;0.50;0.50;;;;;;;;;;4971870;28;20031;-70
2023/04/03 03:01:32;;;;;;;0.60;0.60;;;;;;;;;;4971030;28;20034;-70
2023/04/03 03:03:58;;;;;;;0.70;0.60;;;7.70;99.90;;;;;;4971101;28;20508;-71
2023/04/03 03:06:24;;;;;;;0.80;0.80;;;;;;;;;;4971982;28;20047;-70
2023/04/03 03:08:50;;;;;;;0.82;0.60;;;;;;;;;;4971686;28;20019;-70
2023/04/03 03:11:16;;;;;;;0.60;0.60;;;7.90;99.90;;;;;;4971488;28;20041;-70
2023/04/03 03:13:42;;;;;;;0.50;0.50;;;;;;;;;;4971067;28;20110;-70
2023/04/03 03:16:08;;;;;;;0.82;0.70;;;7.70;99.90;;;;;;4971486;28;20077;-71
2023/04/03 03:18:34;;;;;;;0.50;0.50;;;;;;;;;;4971510;28;20031;-71
2023/04/03 03:21:01;;;;;;;0.40;0.40;;;7.70;99.90;;;;;;4970404;28;20097;-70
2023/04/03 03:23:28;;;;;;;0.40;0.40;;;7.90;99.90;;;;;;4971501;28;20093;-70
2023/04/03 03:26:00;;;;;;;0.43;0.43;;;7.80;99.90;;;;;;4971291;28;20039;-70
2023/04/03 03:28:26;;;;;;;0.43;0.43;;;7.60;99.90;;;;;;4970870;28;20027;-70
2023/04/03 03:30:52;;;;;;;0.40;0.40;;;;;;;;;;4970846;28;20027;-72
2023/04/03 03:33:18;;;;;;;0.50;0.50;;;7.50;99.90;;;;;;4971100;28;20034;-70
2023/04/03 03:35:44;;;;;;;0.57;0.50;;;6.90;99.90;;;;;;4970742;28;20023;-70
2023/04/03 03:38:10;;;;;;;0.43;0.43;;;;;;;;;;4971164;28;20097;-70
2023/04/03 03:40:36;;;;;;;0.40;0.40;;;;;;;;;;4970792;28;20031;-71
2023/04/03 03:43:02;;;;;;;0.90;0.70;;;7.50;99.90;;;;;;4970737;28;20042;-71
2023/04/03 03:45:28;;;;;;;0.40;0.40;;;;;;;;;;4970595;28;20039;-70
2023/04/03 03:47:54;;;;;;;0.40;0.40;;;;;;;;;;4970726;28;20058;-71
2023/04/03 03:50:20;;;;;;;0.50;0.50;;;;;;;;;;4970781;28;20023;-70
2023/04/03 03:52:46;;;;;;;0.40;0.40;;;;;;;;;;4970570;28;20050;-71
2023/04/03 03:55:12;;;;;;;1.38;0.65;;;;;;;;;;4969950;28;20031;-70
2023/04/03 03:57:38;;;;;;;0.55;0.55;;;;;;;;;;4970084;28;20031;-71
2023/04/03 04:00:04;;;;;;;0.40;0.40;;;7.80;99.90;;;;;;4964800;28;20492;-71
2023/04/03 04:02:30;;;;;;;0.68;0.60;;;;;;;;;;4965202;28;20546;-71
2023/04/03 04:04:57;;;;;;;0.43;0.40;;;8.40;99.90;;;;;;4970348;28;20034;-70
2023/04/03 04:07:23;;;;;;;0.65;0.50;;;;;;;;;;4970275;28;20027;-71
2023/04/03 04:09:49;;;;;;;0.80;0.50;;;;;;;;;;4970473;28;20805;-70
2023/04/03 04:12:15;;;;;;;0.50;0.50;;;7.40;99.90;;;;;;4970186;28;20031;-70
2023/04/03 04:14:41;;;;;;;0.50;0.50;;;8.00;99.90;;;;;;4970050;28;20034;-71
2023/04/03 04:17:07;;;;;;;0.50;0.50;;;7.70;99.90;;;;;;4969808;28;20086;-71
2023/04/03 04:19:33;;;;;;;0.68;0.68;;;7.60;99.90;;;;;;4970228;28;20037;-70
2023/04/03 04:21:59;;;;;;;3.38;0.50;;;;;;;;;;4970076;28;20031;-71
2023/04/03 04:24:25;;;;;;;0.40;0.40;;;;;;;;;;4970293;28;20031;-71
2023/04/03 04:26:50;;;;;;;0.52;0.47;;;7.70;99.90;;;;;;4970704;28;20054;-71
2023/04/03 04:29:16;;;;;;;0.50;0.50;;;;;;;;;;4970173;28;20516;-72
2023/04/03 04:31:42;;;;;;;0.50;0.50;;;8.10;99.90;;;;;;4984360;28;20113;-70
2023/04/03 04:34:08;;;;;;;0.40;0.40;;;;;;;;;;4969331;28;20125;-71
2023/04/03 04:36:34;;;;;;;0.65;0.50;;;;;;;;;;4969740;28;20030;-70
2023/04/03 04:39:01;;;;;;;0.38;0.38;;;;;;;;;;4969764;28;20034;-71
2023/04/03 04:41:27;;;;;;;0.45;0.45;;;;;;;;;;4969698;28;20086;-71
2023/04/03 04:43:53;;;;;;;1.25;0.70;;;;;;;;;;4969954;28;20126;-71
2023/04/03 04:46:19;;;;;;;0.50;0.50;;;;;;;;;;4969634;28;20101;-71
2023/04/03 04:48:45;;;;;;;0.50;0.50;;;7.80;99.90;;;;;;4969956;28;20031;-71
2023/04/03 04:51:11;;;;;;;1.23;0.65;;;7.70;99.90;;;;;;4969626;28;20106;-70
2023/04/03 04:53:37;;;;;;;0.65;0.55;;;8.30;99.90;;;;;;4968620;28;20070;-70
2023/04/03 04:56:03;;;;;;;0.50;0.50;;;7.60;99.90;;;;;;4969382;28;20065;-71
2023/04/03 04:58:29;;;;;;;0.60;0.60;;;;;;;;;;4969849;28;20097;-71
2023/04/03 05:00:59;;;;;;;3.33;0.82;;;3.70;99.90;;;;;;4970047;28;20027;-70
2023/04/03 05:03:25;;;;;;;4.15;0.80;;;;;;;;;;4969895;28;20554;-71
2023/04/03 05:05:51;;;;;;;1.08;0.80;;;7.80;99.90;;;;;;4969365;28;20026;-70
2023/04/03 05:08:17;;;;;;;0.77;0.60;;;7.60;99.90;;;;;;4968319;28;20095;-71
2023/04/03 05:10:44;;;;;;;0.50;0.50;;;8.00;99.90;;;;;;4964038;28;20576;-71
2023/04/03 05:13:09;;;;;;;0.98;0.88;;;7.80;99.90;;;;;;4961523;28;20473;-71
2023/04/03 05:15:35;;;;;;;2.75;1.08;;;;;;;;;;4965367;28;20034;-71
2023/04/03 05:18:01;;;;;;;0.85;0.80;;;;;;;;;;4964831;28;20045;-70
2023/04/03 05:20:27;;;;;;;1.00;0.90;;;8.00;99.90;;;;;;4965731;28;20097;-70
2023/04/03 05:22:53;;;;;;;0.90;0.88;;;;;;;;;;4969326;28;20054;-70
2023/04/03 05:25:19;;;;;;;1.20;1.10;;;;;;;;;;4959089;28;20110;-70
2023/04/03 05:27:45;;;;;;;1.38;0.80;;;8.00;99.90;;;;;;4966139;28;20085;-70
2023/04/03 05:30:11;;;;;;;0.95;0.95;;;8.10;99.90;;;;;;4957830;28;20508;-70
2023/04/03 05:32:37;;;;;;;1.00;0.77;;;;;;;;;;4966815;28;20042;-71
2023/04/03 05:35:03;;;;;;;1.50;1.40;;;;;;;;;;4962695;28;20039;-70
2023/04/03 05:37:29;;;;;;;0.80;0.80;;;;;;;;;;4953874;28;20795;-71
2023/04/03 05:39:55;;;;;;;1.15;0.90;;;;;;;;;;4963166;28;20175;-70
2023/04/03 05:42:20;;;;;;;2.95;1.40;;;8.20;99.90;;;;;;4956142;28;20032;-70
2023/04/03 05:44:47;;;;;;;4.22;1.15;;;;;;;;;;4963611;28;20594;-70
2023/04/03 05:47:13;;;;;;;2.13;1.35;;;8.00;99.90;;;;;;4956967;28;20051;-70
2023/04/03 05:49:42;;;;;;;1.20;1.10;;;;;;;;;;4963538;28;20653;-71
2023/04/03 05:52:22;;;;;;;0.70;0.70;;;8.00;99.90;;;;;;4968589;28;20574;-72
2023/04/03 05:54:48;;;;;;;1.67;1.10;;;;;;;;;;4962550;28;20672;-73
2023/04/03 05:57:15;;;;;;;2.85;1.17;;;8.10;99.90;;;;;;4962830;28;20066;-70
2023/04/03 05:59:45;;;;;;;1.05;0.90;;;8.00;99.90;;;;;;4968458;28;20026;-71
2023/04/03 06:02:22;;;;;;;0.85;0.85;;;8.20;99.90;;;;;;4960853;28;20039;-70
2023/04/03 06:04:48;;;;;;;1.27;1.10;;;;;;;;;;4965591;28;20019;-70
2023/04/03 06:07:20;;;;;;;1.52;1.17;;;8.00;99.90;;;;;;4969096;28;20035;-70
2023/04/03 06:09:47;;;;;;;1.73;1.63;;;;;;;;;;4968352;28;20067;-70
2023/04/03 06:12:13;;;;;;;4.07;1.27;;;;;;;;;;4962952;28;20042;-70
2023/04/03 06:14:39;;;;;;;1.67;1.00;;;;;;;;;;4965505;28;20034;-71
2023/04/03 06:17:06;;;;;;;1.75;1.15;;;;;;;;;;4967925;28;20435;-70
2023/04/03 06:19:32;;;;;;;2.10;1.27;;;8.20;99.90;;;;;;4970922;28;20015;-70
2023/04/03 06:21:58;;;;;;;2.95;1.65;;;;;;;;;;4971709;28;20027;-71
2023/04/03 06:24:25;;;;;;;3.92;2.35;;;8.30;99.90;;;;;;4971337;28;20090;-71
2023/04/03 06:26:52;;;;;;;3.13;1.77;;;8.20;99.90;;;;;;4970321;28;20035;-73
2023/04/03 06:29:19;;;;;;;2.47;1.80;;;8.20;99.90;;;;;;4971958;28;20110;-72
2023/04/03 06:31:45;;;;;;;1.05;1.00;;;8.10;99.90;;;;;;4967104;28;20038;-74
2023/04/03 06:34:12;;;;;;;1.15;0.93;;;;;;;;;;4967005;28;20475;-73
2023/04/03 06:36:38;;;;;;;1.27;1.13;;;8.10;99.90;;;;;;4971362;28;20110;-73
2023/04/03 06:39:04;;;;;;;3.47;1.52;;;;;;;;;;4971224;28;20421;-73
2023/04/03 06:41:31;;;;;;;2.60;1.48;;;;;;;;;;4971018;28;20034;-74
2023/04/03 06:43:57;;;;;;;4.13;1.40;;;;;;;;;;4971483;28;20424;-72
2023/04/03 06:46:24;;;;;;;3.15;1.70;;;9.00;99.90;;;;;;4969113;28;20046;-73
2023/04/03 06:48:51;;;;;;;1.60;1.20;;;8.50;99.90;;;;;;4971292;28;20034;-73
2023/04/03 06:51:19;;;;;;;2.25;1.70;;;8.50;99.90;;;;;;4970765;28;20023;-73
2023/04/03 06:53:46;;;;;;;1.83;1.20;;;8.80;99.90;;;;;;4975980;28;20035;-72
2023/04/03 06:56:12;;;;;;;2.80;1.40;;;9.00;99.90;;;;;;4971000;28;20085;-73
2023/04/03 06:58:38;;;;;;;0.88;0.88;;;8.60;99.90;;;;;;4971425;28;20674;-73
2023/04/03 07:01:04;;;;;;;2.22;1.30;;;8.90;99.90;;;;;;4960577;28;20038;-69
2023/04/03 07:03:30;;;;;;;2.45;0.95;;;8.50;99.90;;;;;;4970479;28;20043;-69
2023/04/03 07:05:56;;;;;;;2.30;1.55;;;;;;;;;;4970080;28;20035;-69
2023/04/03 07:08:23;;;;;;;1.52;1.30;;;;;;;;;;4970457;28;20118;-70
2023/04/03 07:10:50;;;;;;;1.83;0.90;;;;;;;;;;4970155;28;20038;-68
2023/04/03 07:13:16;;;;;;;1.97;1.10;;;;;;;;;;4970982;28;20051;-69
2023/04/03 07:15:42;;;;;;;1.13;1.00;;;;;;;;;;4970124;28;20316;-70
2023/04/03 07:18:08;;;;;;;1.38;1.10;;;;;;;;;;4970876;28;20421;-69
2023/04/03 07:20:34;;;;;;;1.65;1.00;;;;;;;;;;4970619;28;20113;-69
2023/04/03 07:23:01;;;;;;;0.90;0.88;;;;;;;;;;4970234;28;20105;-70
2023/04/03 07:25:27;;;;;;;0.70;0.70;;;;;;;;;;4969675;28;20090;-69
2023/04/03 07:27:54;;;;;;;1.70;1.10;;;;;;;;;;4970433;28;20042;-68
2023/04/03 07:30:20;;;;;;;2.17;1.08;;;8.90;99.90;;;;;;4969755;28;20053;-69
2023/04/03 07:32:46;;;;;;;0.95;0.88;;;9.00;99.90;;;;;;4970548;28;20066;-69
2023/04/03 07:35:12;;;;;;;1.40;1.05;;;;;;;;;;4969908;28;20081;-69
2023/04/03 07:37:38;;;;;;;2.58;1.25;;;;;;;;;;4969344;28;20073;-72
2023/04/03 07:40:04;;;;;;;1.63;1.00;;;;;;;;;;4969451;28;20500;-73
2023/04/03 07:42:30;;;;;;;0.90;0.80;;;;;;;;;;4970078;28;20102;-72
2023/04/03 07:44:56;;;;;;;0.98;0.93;;;;;;;;;;4969965;28;20023;-72
2023/04/03 07:47:22;;;;;;;7.38;3.25;;;8.70;99.90;;;;;;4970082;28;20054;-71
2023/04/03 07:49:48;;;;;;;3.17;1.80;;;;;;;;;;4970222;28;20575;-72
2023/04/03 07:52:15;;;;;;;1.20;0.90;;;9.00;99.90;;;;;;4969796;28;20031;-72
2023/04/03 07:54:41;;;;;;;0.85;0.77;;;8.90;99.90;;;;;;4969484;28;20038;-72
2023/04/03 07:57:06;;;;;;;0.80;0.80;;;8.80;99.90;;;;;;4970254;28;20412;-75
2023/04/03 07:59:32;;;;;;;0.90;0.90;;;9.00;99.90;;;;;;4969834;28;20035;-73
2023/04/03 08:01:58;;;;;;;1.23;1.13;;;;;;;;;;4969339;28;20042;-72
2023/04/03 08:04:25;;;;;;;5.63;1.83;;;;;;;;;;4969607;28;20111;-73
2023/04/03 08:06:52;;;;;;;1.58;1.02;;;;;;;;;;4969965;28;20029;-73
2023/04/03 08:09:19;;;;;;;0.60;0.60;;;9.00;99.90;;;;;;4969891;28;20066;-73
2023/04/03 08:11:45;;;;;;;0.70;0.70;;;;;;;;;;4960265;28;20023;-73
2023/04/03 08:14:16;;;;;;;1.10;0.82;;;;;;;;;;4972346;28;20114;-74
2023/04/03 08:16:43;;;;;;;1.17;1.00;;;8.80;99.90;;;;;;4969340;28;20645;-71
2023/04/03 08:19:10;;;;;;;1.27;1.17;;;;;;;;;;4969776;28;20488;-71
2023/04/03 08:21:36;;;;;;;1.58;1.15;;;9.10;99.90;;;;;;4963059;28;20578;-71
2023/04/03 08:24:03;;;;;;;1.95;1.30;;;;;;;;;;4965799;28;20031;-71
2023/04/03 08:26:29;;;;;;;1.20;1.10;;;;;;;;;;4969270;28;20045;-74
2023/04/03 08:28:55;;;;;;;1.42;1.33;;;;;;;;;;4969486;28;20106;-71
2023/04/03 08:31:21;;;;;;;1.52;1.42;;;9.30;99.90;;;;;;4969123;28;20514;-71
2023/04/03 08:33:47;;;;;;;1.67;1.38;;;9.10;99.90;;;;;;4969266;28;20113;-71
2023/04/03 08:36:22;;;;;;;1.58;1.15;;;9.40;99.90;;;;;;4969540;28;20035;-71
2023/04/03 08:38:49;;;;;;;1.65;1.38;;;9.50;99.90;;;;;;4968917;28;20111;-72
2023/04/03 08:41:30;;;;;;;1.60;1.40;;;9.30;99.90;;;;;;4968681;28;20029;-71
2023/04/03 08:44:33;;;;;;;1.92;1.48;;;9.60;99.90;;;;;;4959093;28;20038;-72
2023/04/03 08:47:17;;;;;;;1.92;1.00;;;9.70;99.90;;;;;;4956962;28;20054;-71
2023/04/03 08:49:48;;;;;;;2.20;1.42;;;9.60;99.90;;;;;;4970851;28;20030;-72
2023/04/03 08:52:19;;;;;;;0.95;0.88;;;10.10;99.90;;;;;;4977815;28;20042;-72
2023/04/03 08:54:54;;;;;;;1.17;1.08;;;10.30;99.90;;;;;;4968308;28;20041;-72
2023/04/03 08:57:33;;;;;;;1.10;1.00;;;10.40;99.90;;;;;;4969468;28;20795;-72
2023/04/03 09:00:16;;;;;;;1.70;1.60;;;10.90;99.90;;;;;;4968929;28;20499;-72
2023/04/03 09:02:51;;;;;;;2.28;2.08;;;10.70;99.60;;;;;;4969199;28;20042;-72
2023/04/03 09:05:20;;;;;;;2.53;2.25;;;10.70;99.90;;;;;;4968648;28;20026;-70
2023/04/03 09:07:52;;;;;;;2.97;2.78;;;10.70;99.10;;;;;;4969019;28;20110;-73
2023/04/03 09:10:27;;;;;;;4.18;2.85;;;10.50;99.90;;;;;;4969773;28;20038;-72
2023/04/03 09:13:38;;;;;;;4.20;3.17;;;10.70;99.30;;;;;;4956623;28;20492;-72
2023/04/03 09:16:19;;;;;;;4.30;2.45;;;10.80;98.90;;;;;;4968708;28;20551;-72
2023/04/03 09:18:52;;;;;;;4.32;2.97;;;10.50;99.30;;;;;;4969092;28;20070;-72
2023/04/03 09:21:36;;;;;;;4.57;3.40;;;11.30;98.00;;;;;;4968782;28;20654;-73
2023/04/03 09:24:06;;;;;;;3.70;3.40;;;11.40;96.90;;;;;;4968301;28;20031;-72
2023/04/03 09:26:48;;;;;;;6.50;3.13;;;11.50;96.60;;;;;;4968912;28;20524;-72
2023/04/03 09:29:22;;;;;;;3.47;3.13;;;11.80;99.90;;;;;;4968524;28;20081;-73
2023/04/03 09:32:08;;;;;;;4.20;2.17;;;11.50;96.20;;;;;;4967493;28;20455;-73
2023/04/03 09:34:37;;;;;;;5.28;3.20;;;11.50;97.10;;;;;;4967946;28;20042;-74
2023/04/03 09:37:05;;;;;;;5.30;2.63;;;12.50;97.30;;;;;;4968289;28;20030;-73
2023/04/03 09:39:47;;;;;;;4.88;2.60;;;10.70;97.60;;;;;;4968825;28;20452;-73
2023/04/03 09:42:20;;;;;;;4.20;2.42;;;10.70;99.90;;;;;;4967995;28;20046;-74
2023/04/03 09:45:05;;;;;;;7.07;3.28;;;10.80;99.90;;;;;;4968248;28;20023;-73
2023/04/03 09:47:36;;;;;;;5.03;2.30;;;10.40;98.90;;;;;;4968745;28;20049;-73
2023/04/03 09:50:14;;;;;;;4.10;2.33;;;10.60;99.90;;;;;;4968490;28;20443;-74
2023/04/03 09:52:44;;;;;;;;;;;10.30;99.10;;;;;;4969170;28;20027;-73
2023/04/03 09:55:18;;;;;;;4.20;2.53;;;10.40;99.20;;;;;;4972271;28;20005;-73
2023/04/03 09:57:48;;;;;;;5.15;2.78;;;10.60;99.20;;;;;;4972630;28;20113;-72
2023/04/03 10:00:33;;;;;;;8.02;3.97;;;10.90;99.90;;;;;;4972042;28;20464;-73
2023/04/03 10:02:59;;;;;;;6.13;3.35;;;10.80;98.20;;;;;;4970405;28;20030;-71
2023/04/03 10:05:41;;;;;;;6.25;3.28;;;10.60;98.20;;;;;;4971371;28;20035;-71
2023/04/03 10:08:15;;;;;;;5.88;2.70;;;10.70;99.90;;;;;;4964203;28;20023;-71
2023/04/03 10:10:43;;;;;;;4.30;2.60;;;11.00;99.90;;;;;;4971598;28;20041;-71
2023/04/03 10:13:11;;;;;;;;;;;10.80;97.80;;;;;;4974355;28;20868;-71
2023/04/03 10:15:43;;;;;;;4.72;2.45;;;10.50;97.90;;;;;;4971679;28;19917;-71
2023/04/03 10:18:42;;;;;;;7.07;3.60;;;10.90;97.80;;;;;;4968136;28;20467;-72
2023/04/03 10:21:38;;;;;;;4.53;2.88;;;10.70;99.90;;;;;;4963632;28;20030;-71
2023/04/03 10:24:17;;;;;;;6.32;2.55;;;11.00;99.90;;;;;;4969874;28;20106;-72
2023/04/03 10:27:08;;;;;;;3.63;2.45;;;10.70;97.20;;;;;;4968999;28;20030;-70
2023/04/03 10:29:36;;;;;;;7.15;4.32;;;10.70;97.70;;;;;;4965584;28;20035;-72
2023/04/03 10:32:21;;;;;;;2.95;2.55;;;11.10;97.70;;;;;;4970705;28;20025;-71
2023/04/03 10:34:49;;;;;;;4.35;2.25;;;11.80;99.90;;;;;;4971051;28;20035;-74
2023/04/03 10:37:18;;;;;;;4.00;2.85;;;12.90;99.90;;;;;;4971406;28;20027;-72
2023/04/03 10:39:44;;;;;;;5.07;2.88;;;;;;;;;;4971340;28;20039;-72
2023/04/03 10:42:38;;;;;;;7.97;3.13;;;14.30;86.20;;;;;;4971632;28;20043;-71
2023/04/03 10:45:06;;;;;;;5.72;2.80;;;14.60;82.50;;;;;;4970201;28;20113;-73
2023/04/03 10:47:58;;;;;;;5.10;2.80;;;14.80;90.60;;;;;;4978311;28;20057;-72
2023/04/03 10:50:54;;;;;;;8.75;3.20;;;14.60;90.40;;;;;;4970873;28;20027;-72
2023/04/03 10:53:43;;;;;;;3.00;2.13;;;14.90;80.20;;;;;;4970791;28;20039;-73
2023/04/03 10:56:53;;;;;;;3.97;2.22;;;14.80;84.80;;;;;;4970756;28;20093;-72
2023/04/03 10:59:19;;;;;;;5.15;3.50;;;;;;;;;;4971600;28;20053;-72
2023/04/03 11:01:49;;;;;;;3.45;2.42;;;15.40;77.20;;;;;;4971087;28;20023;-72
2023/04/03 11:04:17;;;;;;;3.75;1.90;;;15.40;75.30;;;;;;4969692;28;20053;-73
2023/04/03 11:07:21;;;;;;;4.30;2.95;;;16.00;74.10;;;;;;4970504;28;20025;-73
2023/04/03 11:09:49;;;;;;;3.72;2.88;;;16.30;89.80;;;;;;4974806;28;20663;-73
2023/04/03 11:12:34;;;;;;;5.00;2.67;;;17.40;75.80;;;;;;4970705;28;20102;-73
2023/04/03 11:15:02;;;;;;;3.50;2.17;;;17.40;70.60;;;;;;4973390;28;20038;-73
2023/04/03 11:17:38;;;;;;;2.22;1.80;;;16.80;74.80;;;;;;4970639;28;20031;-73
2023/04/03 11:20:17;;;;;;;4.30;2.17;;;17.20;77.40;;;;;;4970670;28;20699;-72
2023/04/03 11:22:46;;;;;;;3.25;2.72;;;17.00;71.60;;;;;;4957596;28;20491;-72
2023/04/03 11:25:12;;;;;;;4.07;1.95;;;;;;;;;;4970348;28;20054;-73
2023/04/03 11:27:41;;;;;;;2.97;2.60;;;20.60;59.60;;;;;;4970411;28;20055;-72
2023/04/03 11:30:17;;;;;;;4.80;2.42;;;20.50;56.00;;;;;;4970455;28;20033;-72
2023/04/03 11:33:11;;;;;;;3.90;2.95;;;24.50;63.40;;;;;;4970611;28;20084;-72
2023/04/03 11:35:42;;;;;;;4.10;2.22;;;22.80;64.40;;;;;;4957818;28;20043;-72
2023/04/03 11:38:19;;;;;;;3.97;3.38;;;22.90;50.20;;;;;;4970288;28;20073;-70
2023/04/03 11:40:46;;;;;;;2.90;2.50;;;22.70;63.10;;;;;;4970282;28;20039;-71
2023/04/03 11:43:30;;;;;;;2.97;2.67;;;21.90;48.60;;;;;;4969420;28;20050;-71
2023/04/03 11:45:59;;;;;;;4.38;3.20;;;21.50;59.50;;;;;;4970061;28;20085;-71
2023/04/03 11:48:33;;;;;;;4.20;3.03;;;20.20;51.10;;;;;;4970368;28;20165;-71
2023/04/03 11:51:16;;;;;;;5.45;2.72;;;20.90;62.00;;;;;;4968840;28;20105;-71
2023/04/03 11:53:42;;;;;;;3.17;2.13;;;21.30;49.20;;;;;;4967210;28;20447;-71
2023/04/03 11:56:32;;;;;;;3.87;3.47;;;24.20;58.10;;;;;;4969801;28;20023;-70
2023/04/03 11:59:15;;;;;;;3.50;2.45;;;26.70;40.70;;;;;;4962575;28;20412;-74
2023/04/03 12:01:46;;;;;;;3.25;2.38;;;27.00;51.90;;;;;;4965580;28;20034;-74
2023/04/03 12:04:16;;;;;;;3.55;2.22;;;26.00;55.10;;;;;;4973532;28;20053;-73
2023/04/03 12:07:00;;;;;;;6.45;3.28;;;24.90;54.70;;;;;;4972022;28;20023;-74
2023/04/03 12:09:33;;;;;;;2.50;1.85;;;22.40;44.70;;;;;;4970139;28;20027;-72
2023/04/03 12:12:20;;;;;;;3.85;2.30;;;19.70;48.60;;;;;;4962804;28;20050;-73
2023/04/03 12:14:47;;;;;;;2.85;2.03;;;18.00;70.10;;;;;;4967418;28;20081;-72
2023/04/03 12:17:26;;;;;;;4.20;2.67;;;16.40;55.50;;;;;;4969010;28;20032;-72
2023/04/03 12:19:52;;;;;;;7.40;4.20;;;;;;;;;;4951266;28;20046;-72
2023/04/03 12:22:20;;;;;;;4.47;2.60;;;14.70;59.80;;;;;;4967984;28;20025;-72
2023/04/03 12:24:50;;;;;;;4.20;2.75;;;15.60;68.90;;;;;;4969426;28;20058;-72
2023/04/03 12:27:38;;;;;;;4.85;2.25;;;15.10;62.80;;;;;;4969201;28;20669;-72
2023/04/03 12:30:04;;;;;;;2.63;1.85;;;;;;;;;;4969667;28;20409;-73
2023/04/03 12:32:56;;;;;;;2.95;2.40;;;14.40;61.20;;;;;;4969185;28;20030;-76
2023/04/03 12:35:39;;;;;;;2.85;2.20;;;14.70;61.50;;;;;;4968169;28;20110;-73
2023/04/03 12:38:13;;;;;;;2.75;2.33;;;14.80;60.80;;;;;;4969117;28;20029;-74
2023/04/03 12:40:56;;;;;;;4.25;2.40;;;14.40;79.70;;;;;;4969006;28;20031;-72
2023/04/03 12:43:22;;;;;;;4.50;2.75;;;;;;;;;;4967108;28;20033;-74
2023/04/03 12:46:15;;;;;;;2.75;1.83;;;15.60;59.50;;;;;;4969390;28;20118;-71
2023/04/03 12:48:58;;;;;;;3.33;2.25;;;15.70;75.30;;;;;;4962441;28;20054;-73
2023/04/03 12:51:37;;;;;;;2.70;1.70;;;16.00;56.90;;;;;;4966355;28;20033;-75
2023/04/03 12:54:17;;;;;;;2.25;1.70;;;16.10;57.20;;;;;;4961336;28;20518;-74
2023/04/03 12:56:43;;;;;;;1.45;1.35;;;16.10;65.50;;;;;;4966684;28;20027;-74
2023/04/03 12:59:17;;;;;;;1.75;1.52;;;15.40;74.10;;;;;;4967414;28;20035;-74
2023/04/03 13:01:43;;;;;;;0.93;0.93;;;15.80;75.90;;;;;;4968615;28;20023;-73
2023/04/03 13:04:12;;;;;;;1.40;1.00;;;16.00;56.60;;;;;;4968226;28;20058;-73
2023/04/03 13:06:43;;;;;;;1.27;1.17;;;16.00;56.20;;;;;;4968957;28;20054;-73
2023/04/03 13:09:27;;;;;;;1.80;1.10;;;15.50;56.10;;;;;;4968994;28;20062;-73
2023/04/03 13:12:10;;;;;;;1.77;1.30;;;14.70;76.10;;;;;;4968388;28;20019;-73
2023/04/03 13:14:36;;;;;;;1.48;1.10;;;14.60;67.80;;;;;;4963957;28;20054;-73
2023/04/03 13:17:16;;;;;;;1.75;0.90;;;14.80;66.80;;;;;;4967528;28;20122;-73
2023/04/03 13:19:43;;;;;;;1.33;1.23;;;15.20;60.10;;;;;;4968451;28;20484;-73
2023/04/03 13:22:44;;;;;;;0.80;0.80;;;15.00;58.50;;;;;;4968938;28;20027;-73
2023/04/03 13:25:14;;;;;;;0.90;0.90;;;15.10;73.50;;;;;;4963394;28;20516;-73
2023/04/03 13:27:42;;;;;;;1.33;1.23;;;;;;;;;;4970050;28;20058;-73
2023/04/03 13:30:26;;;;;;;1.00;0.90;;;15.60;59.10;;;;;;4972710;28;20035;-73
2023/04/03 13:32:52;;;;;;;3.05;1.23;;;;;;;;;;4972512;28;20058;-73
2023/04/03 13:35:33;;;;;;;2.33;1.40;;;15.40;56.90;;;;;;4971936;28;20121;-72
2023/04/03 13:38:05;;;;;;;1.20;1.10;;;15.30;56.10;;;;;;4971225;28;20030;-71
2023/04/03 13:40:31;;;;;;;1.65;1.55;;;;;;;;;;4959705;28;20052;-74
2023/04/03 13:43:21;;;;;;;1.30;1.20;;;15.50;56.80;;;;;;4972510;28;20026;-74
2023/04/03 13:45:56;;;;;;;1.33;1.23;;;15.60;55.10;;;;;;4973490;28;20039;-74